RUNWAY INFORMATION
Runway Length Width Elevation Displaced
Threshold
Heading | Runway Length Width Elevation Displaced
Threshold
Heading
04 4000 ft 180 ft 0 ft 0 ft 40 | 22 4000 ft 180 ft 0 ft 0 ft 220
08 4004 ft 75 ft 29 ft 0 ft 79 | 26 4004 ft 75 ft 21 ft 0 ft 259
13 4000 ft 180 ft 0 ft 0 ft 130 | 31 4000 ft 180 ft 0 ft 0 ft 310
17 3701 ft 100 ft 25 ft 0 ft 168 | 35 3701 ft 100 ft 27 ft 0 ft 348

 AIRPORT FREQUENCIES
Type A/D Name DAYTONA AP Frequency 125.8 MHZ
Type ATIS Name ATIS Frequency 118.475 MHZ
Type AWOS Name AWOS 3 Frequency 118.475 MHZ
Type CTAF Name CTAF Frequency 119.075 MHZ
Type GCCD Name GND/CLNC D Frequency 121.625 MHZ
Type RDO Name ST PETERSB Frequency 122.4 MHZ
Type TWR Name TWR Frequency 119.075 MHZ
Type UNIC Name UNICOM Frequency 123.05 MHZ

 AIRPORT NEAR NAVIGATION AIDS

 METAR AND TAF INFORMATION
METAR FOR KOMN
ADDS - METARS form results

(1303 UTC 07 December 2021)
Data provider http://aviationweather.gov/metar/data/
 
METAR text: KOMN 071250Z 00000KT 1/4SM FG OVC002 15/15 A3009
Conditions at: KOMN (ORMOND BEACH VOR, FL, US) observed 1250 UTC 07 December 2021
Temperature: 15.0°C (59°F)
Dewpoint: 15.0°C (59°F) [RH = 100%]
Pressure (altimeter): 30.09 inches Hg (1019.0 mb)
Winds: calm
Visibility: 0.25 miles (0.40 km)
Ceiling: 200 feet AGL
Clouds: overcast cloud deck at 200 feet AGL
Weather: FG  (fog)



© 2013 - 2021, FlightSimLog.org - Powered by Virtual Airlines Manager